Hodgeville, Canada
Current Conditions -  °F | °C
As of 8:00 PM on Sunday 21 Dec 2014 (Local Time) from CYYN Reporting Station
Light Snow Light Snow  
Wind Chill: -14°   Ceiling: 500
Heat Index: -6°   Visibility: 4mi
Dew Point: -6°   Wind: 20mph
Humidity: 100%   Direction: 290°WNW
Pressure: 29.41"   Gusts: 25mph
Location:  50.12°N, 106.98°W
Report Text: CYYN 220200Z AUTO 29017G22KT 4SM -SN BKN005 BKN013 OVC031 M06/M06 A2941 RMK SLP995
Loading
Personal Weather Stations






























Interactive Weather Map New forecast layout! Learn more

10-Day Weather Forecast

Advertisements
Track Severe Weather on mobile